createdAt,value
2022-12-25T00:00:45.912Z,85.83
2022-12-25T00:03:49.446Z,85.85
2022-12-25T00:06:51.910Z,85.83
2022-12-25T00:09:54.636Z,85.93
2022-12-25T00:12:57.064Z,85.92
2022-12-25T00:16:04.857Z,85.89
2022-12-25T00:19:07.369Z,85.92
2022-12-25T00:22:10.042Z,85.80
2022-12-25T00:25:12.655Z,85.73
2022-12-25T00:28:15.347Z,85.78
2022-12-25T00:31:18.135Z,85.89
2022-12-25T00:34:22.014Z,85.82
2022-12-25T00:37:24.494Z,85.97
2022-12-25T00:40:28.796Z,86.05
2022-12-25T00:43:31.213Z,86.01
2022-12-25T00:46:36.290Z,85.85
2022-12-25T00:49:38.861Z,85.84
2022-12-25T00:52:41.843Z,85.61
2022-12-25T00:55:52.104Z,85.79
2022-12-25T00:58:55.612Z,85.66
2022-12-25T01:02:18.177Z,84.79
2022-12-25T01:05:21.040Z,84.59
2022-12-25T01:08:23.460Z,84.45
2022-12-25T01:11:26.305Z,84.29
2022-12-25T01:14:28.612Z,84.17
2022-12-25T01:17:31.305Z,84.06
2022-12-25T01:20:33.668Z,84.29
2022-12-25T01:23:36.748Z,84.49
2022-12-25T01:26:39.055Z,84.56
2022-12-25T01:29:41.793Z,83.95
2022-12-25T01:32:44.260Z,84.29
2022-12-25T01:35:47.765Z,84.49
2022-12-25T01:38:51.684Z,84.52
2022-12-25T01:41:54.323Z,84.61
2022-12-25T01:45:43.819Z,84.59
2022-12-25T01:48:46.728Z,84.43
2022-12-25T01:51:54.464Z,84.41
2022-12-25T01:55:04.073Z,84.48
2022-12-25T01:58:06.696Z,84.35
2022-12-25T02:01:09.422Z,84.47
2022-12-25T02:04:25.163Z,84.52
2022-12-25T02:07:32.428Z,84.59
2022-12-25T02:10:35.447Z,84.52
2022-12-25T02:13:37.856Z,84.56
2022-12-25T02:16:56.798Z,84.62
2022-12-25T02:20:16.054Z,84.66
2022-12-25T02:23:57.057Z,84.55
2022-12-25T02:27:07.257Z,84.77
2022-12-25T02:30:10.945Z,84.79
2022-12-25T02:33:46.136Z,85.03
2022-12-25T02:36:53.885Z,85.15
2022-12-25T02:40:09.570Z,84.93
2022-12-25T02:43:39.511Z,84.95
2022-12-25T02:47:02.623Z,84.73
2022-12-25T02:50:25.808Z,84.89
2022-12-25T02:53:47.508Z,84.99
2022-12-25T02:57:11.633Z,85.12
2022-12-25T03:00:32.997Z,85.13
2022-12-25T03:03:58.747Z,85.16
2022-12-25T03:07:06.226Z,85.17
2022-12-25T03:10:29.392Z,85.19
2022-12-25T03:13:38.220Z,84.95
2022-12-25T03:16:54.099Z,84.82
2022-12-25T03:20:16.648Z,84.82
2022-12-25T03:23:42.916Z,84.88
2022-12-25T03:26:54.972Z,84.87
2022-12-25T03:30:16.254Z,84.69
2022-12-25T03:33:47.070Z,84.46
2022-12-25T03:37:28.606Z,84.52
2022-12-25T03:41:34.911Z,84.65
2022-12-25T03:45:26.558Z,84.55
2022-12-25T03:48:52.413Z,84.77
2022-12-25T03:52:18.254Z,84.85
2022-12-25T03:55:41.991Z,84.82
2022-12-25T03:59:16.526Z,85.19
2022-12-25T04:02:41.600Z,85.24
2022-12-25T04:06:02.745Z,84.89
2022-12-25T04:09:23.638Z,84.99
2022-12-25T04:12:44.758Z,85.31
2022-12-25T04:16:05.968Z,85.37
2022-12-25T04:19:28.573Z,85.42
2022-12-25T04:22:49.728Z,85.19
2022-12-25T04:26:12.103Z,84.81
2022-12-25T04:29:33.179Z,85.10
2022-12-25T04:32:54.994Z,85.14
2022-12-25T04:36:10.117Z,84.99
2022-12-25T04:39:12.877Z,85.17
2022-12-25T04:42:16.930Z,85.30
2022-12-25T04:45:20.727Z,85.30
2022-12-25T04:48:23.839Z,85.07
2022-12-25T04:51:26.502Z,85.10
2022-12-25T04:54:29.697Z,85.13
2022-12-25T04:57:32.898Z,85.17
2022-12-25T05:00:35.276Z,85.10
2022-12-25T05:03:38.940Z,85.13
2022-12-25T05:06:41.441Z,85.24
2022-12-25T05:09:44.117Z,85.24
2022-12-25T05:12:46.558Z,85.21
2022-12-25T05:15:49.761Z,85.32
2022-12-25T05:18:52.394Z,85.36
2022-12-25T05:21:55.357Z,85.33
2022-12-25T05:24:57.903Z,85.33
2022-12-25T05:28:00.854Z,85.47
2022-12-25T05:31:03.517Z,85.56
2022-12-25T05:34:06.322Z,85.60
2022-12-25T05:37:09.487Z,85.82
2022-12-25T05:40:12.213Z,85.43
2022-12-25T05:43:14.589Z,85.69
2022-12-25T05:46:17.893Z,85.48
2022-12-25T05:49:20.462Z,85.47
2022-12-25T05:52:23.464Z,85.53
2022-12-25T05:55:25.867Z,85.43
2022-12-25T05:58:28.654Z,85.36
2022-12-25T06:01:31.144Z,85.11
2022-12-25T06:04:34.182Z,85.11
2022-12-25T06:07:36.516Z,85.18
2022-12-25T06:10:40.233Z,85.23
2022-12-25T06:13:42.852Z,85.41
2022-12-25T06:16:45.763Z,85.63
2022-12-25T06:19:48.171Z,85.73
2022-12-25T06:22:50.839Z,85.78
2022-12-25T06:25:53.331Z,85.87
2022-12-25T06:28:55.980Z,85.87
2022-12-25T06:31:59.068Z,85.77
2022-12-25T06:35:02.386Z,85.61
2022-12-25T06:38:04.769Z,85.65
2022-12-25T06:41:11.183Z,85.54
2022-12-25T06:44:14.413Z,85.44
2022-12-25T06:47:17.616Z,85.53
2022-12-25T06:50:19.916Z,85.60
2022-12-25T06:53:22.575Z,85.77
2022-12-25T06:56:27.949Z,86.05
2022-12-25T06:59:30.634Z,86.21
2022-12-25T07:02:33.604Z,86.49
2022-12-25T07:05:36.438Z,86.32
2022-12-25T07:08:38.820Z,86.14
2022-12-25T07:11:42.437Z,86.13
2022-12-25T07:14:48.809Z,86.35
2022-12-25T07:17:51.635Z,86.28
2022-12-25T07:20:55.837Z,85.86
2022-12-25T07:23:58.573Z,86.06
2022-12-25T07:27:01.020Z,86.02
2022-12-25T07:30:04.306Z,86.09
2022-12-25T07:33:06.859Z,86.24
2022-12-25T07:36:13.429Z,86.22
2022-12-25T07:39:16.403Z,86.07
2022-12-25T07:42:24.817Z,86.04
2022-12-25T07:45:29.839Z,85.97
2022-12-25T07:48:32.968Z,85.54
2022-12-25T07:51:35.384Z,85.19
2022-12-25T07:54:38.096Z,85.20
2022-12-25T07:57:40.430Z,84.61
2022-12-25T08:00:43.129Z,84.67
2022-12-25T08:03:54.476Z,84.24
2022-12-25T08:06:56.977Z,84.10
2022-12-25T08:09:59.851Z,84.01
2022-12-25T08:13:02.305Z,83.79
2022-12-25T08:16:11.042Z,83.78
2022-12-25T08:19:14.974Z,83.44
2022-12-25T08:22:17.707Z,83.36
2022-12-25T08:25:20.057Z,82.95
2022-12-25T08:28:23.935Z,82.86
2022-12-25T08:31:28.822Z,82.69
2022-12-25T08:34:31.554Z,82.48
2022-12-25T08:37:33.935Z,82.37
2022-12-25T08:40:36.655Z,81.81
2022-12-25T08:43:39.514Z,81.71
2022-12-25T08:46:43.745Z,81.08
2022-12-25T08:49:46.235Z,80.17
2022-12-25T08:52:49.297Z,79.22
2022-12-25T08:56:03.770Z,78.97
2022-12-25T08:59:06.526Z,78.17
2022-12-25T09:02:11.858Z,77.01
2022-12-25T09:05:16.975Z,75.64
2022-12-25T09:08:21.717Z,74.71
2022-12-25T09:11:24.549Z,72.96
2022-12-25T09:14:26.913Z,71.94
2022-12-25T09:17:29.553Z,71.65
2022-12-25T09:20:33.037Z,72.04
2022-12-25T09:23:38.938Z,72.86
2022-12-25T09:26:41.350Z,72.88
2022-12-25T09:29:43.997Z,73.21
2022-12-25T09:32:46.390Z,73.52
2022-12-25T09:35:59.401Z,73.58
2022-12-25T09:39:01.971Z,73.05
2022-12-25T09:42:16.927Z,73.18
2022-12-25T09:45:28.645Z,72.12
2022-12-25T09:48:40.369Z,68.89
2022-12-25T09:51:45.422Z,66.04
2022-12-25T09:55:06.431Z,63.46
2022-12-25T09:58:13.621Z,61.72
2022-12-25T10:01:41.270Z,62.20
2022-12-25T10:04:43.922Z,62.29
2022-12-25T10:08:01.657Z,61.58
2022-12-25T10:11:23.400Z,61.29
2022-12-25T10:14:38.821Z,60.02
2022-12-25T10:17:49.920Z,59.36
2022-12-25T10:20:56.667Z,57.38
2022-12-25T10:23:59.320Z,54.98
2022-12-25T10:27:07.356Z,52.46
2022-12-25T10:30:15.934Z,50.76
2022-12-25T10:33:18.713Z,50.67
2022-12-25T10:36:24.940Z,48.64
2022-12-25T10:39:27.548Z,47.09
2022-12-25T10:42:38.734Z,45.58
2022-12-25T10:45:49.645Z,44.75
2022-12-25T10:48:56.834Z,46.17
2022-12-25T10:51:59.427Z,45.29
2022-12-25T10:55:11.961Z,45.23
2022-12-25T10:58:20.602Z,43.92
2022-12-25T11:01:28.363Z,43.27
2022-12-25T11:04:35.651Z,43.31
2022-12-25T11:07:51.322Z,41.71
2022-12-25T11:11:06.593Z,40.25
2022-12-25T11:14:18.698Z,40.24
2022-12-25T11:17:25.088Z,38.93
2022-12-25T11:20:28.227Z,37.61
2022-12-25T11:23:32.852Z,36.49
2022-12-25T11:26:47.548Z,34.91
2022-12-25T11:29:54.180Z,35.93
2022-12-25T11:33:02.405Z,36.13
2022-12-25T11:36:16.431Z,35.86
2022-12-25T11:39:27.862Z,35.60
2022-12-25T11:42:37.161Z,37.06
2022-12-25T11:49:21.633Z,40.32
2022-12-25T11:52:28.031Z,40.98
2022-12-25T11:55:40.977Z,41.76
2022-12-25T11:58:51.899Z,41.44
2022-12-25T12:01:54.867Z,42.13
2022-12-25T12:05:09.246Z,39.87
2022-12-25T12:08:13.934Z,38.42
2022-12-25T12:11:27.278Z,38.05
2022-12-25T12:15:01.950Z,37.67
2022-12-25T12:18:09.036Z,37.72
2022-12-25T12:21:41.228Z,37.86
2022-12-25T12:24:46.290Z,36.82
2022-12-25T12:28:04.548Z,36.46
2022-12-25T12:31:09.442Z,36.78
2022-12-25T12:34:56.642Z,36.16
2022-12-25T12:38:04.521Z,37.21
2022-12-25T12:41:08.667Z,40.46
2022-12-25T12:44:14.426Z,43.46
2022-12-25T12:47:41.149Z,45.04
2022-12-25T12:50:43.879Z,46.71
2022-12-25T12:53:46.381Z,47.66
2022-12-25T12:57:01.166Z,49.62
2022-12-25T13:00:10.902Z,50.37
2022-12-25T13:03:13.815Z,50.83
2022-12-25T13:06:41.681Z,51.82
2022-12-25T13:10:25.767Z,53.19
2022-12-25T13:13:40.901Z,53.75
2022-12-25T13:16:46.642Z,54.92
2022-12-25T13:19:54.973Z,55.58
2022-12-25T13:22:57.684Z,55.60
2022-12-25T13:26:06.707Z,56.63
2022-12-25T13:29:36.690Z,57.35
2022-12-25T13:32:39.157Z,57.29
2022-12-25T13:35:45.430Z,57.39
2022-12-25T13:38:51.114Z,58.00
2022-12-25T13:42:06.898Z,57.43
2022-12-25T13:45:36.407Z,58.16
2022-12-25T13:48:39.158Z,58.21
2022-12-25T13:51:42.274Z,57.94
2022-12-25T13:54:59.370Z,58.70
2022-12-25T13:58:05.683Z,59.29
2022-12-25T14:01:11.784Z,59.32
2022-12-25T14:04:18.715Z,60.08
2022-12-25T14:07:24.186Z,60.50
2022-12-25T14:10:35.556Z,59.80
2022-12-25T14:13:41.912Z,61.32
2022-12-25T14:16:48.879Z,62.21
2022-12-25T14:20:04.084Z,61.96
2022-12-25T14:23:15.915Z,62.67
2022-12-25T14:26:34.127Z,63.29
2022-12-25T14:29:44.711Z,63.95
2022-12-25T14:32:53.501Z,64.69
2022-12-25T14:35:56.838Z,64.46
2022-12-25T14:39:03.004Z,65.45
2022-12-25T14:42:12.928Z,65.92
2022-12-25T14:45:35.010Z,66.59
2022-12-25T14:48:39.053Z,67.07
2022-12-25T14:51:43.283Z,67.27
2022-12-25T14:54:59.965Z,67.79
2022-12-25T14:58:08.115Z,68.59
2022-12-25T15:01:33.464Z,69.31
2022-12-25T15:04:37.009Z,69.72
2022-12-25T15:07:39.959Z,70.51
2022-12-25T15:11:01.015Z,71.05
2022-12-25T15:14:05.196Z,71.79
2022-12-25T15:17:27.404Z,72.56
2022-12-25T15:20:35.421Z,72.91
2022-12-25T15:23:37.748Z,73.55
2022-12-25T15:26:40.407Z,73.79
2022-12-25T15:30:09.309Z,74.14
2022-12-25T15:33:24.465Z,74.62
2022-12-25T15:36:27.743Z,75.21
2022-12-25T15:39:30.396Z,75.47
2022-12-25T15:42:33.238Z,75.49
2022-12-25T15:45:36.029Z,75.66
2022-12-25T15:48:38.408Z,75.64
2022-12-25T15:51:41.899Z,75.76
2022-12-25T15:54:44.221Z,75.77
2022-12-25T15:57:54.656Z,75.90
2022-12-25T16:00:57.029Z,75.76
2022-12-25T16:04:00.004Z,76.03
2022-12-25T16:07:02.430Z,76.35
2022-12-25T16:10:07.557Z,76.33
2022-12-25T16:13:09.851Z,76.24
2022-12-25T16:16:12.509Z,76.26
2022-12-25T16:19:14.886Z,76.40
2022-12-25T16:22:23.185Z,76.36
2022-12-25T16:25:26.120Z,76.53
2022-12-25T16:28:28.793Z,76.25
2022-12-25T16:31:31.243Z,75.91
2022-12-25T16:34:33.973Z,76.06
2022-12-25T16:37:36.510Z,75.98
2022-12-25T16:40:41.798Z,76.06
2022-12-25T16:43:44.418Z,76.23
2022-12-25T16:46:47.695Z,76.14
2022-12-25T16:49:52.378Z,76.14
2022-12-25T16:52:55.082Z,76.06
2022-12-25T16:56:05.989Z,75.87
2022-12-25T16:59:09.253Z,75.68
2022-12-25T17:02:17.398Z,74.89
2022-12-25T17:05:20.163Z,75.73
2022-12-25T17:08:22.509Z,75.36
2022-12-25T17:11:30.273Z,75.45
2022-12-25T17:14:33.960Z,75.53
2022-12-25T17:17:37.554Z,75.13
2022-12-25T17:20:39.994Z,75.30
2022-12-25T17:23:45.031Z,75.43
2022-12-25T17:26:47.925Z,74.84
2022-12-25T17:29:50.573Z,74.94
2022-12-25T17:32:53.139Z,75.34
2022-12-25T17:36:01.862Z,74.73
2022-12-25T17:39:06.505Z,74.73
2022-12-25T17:42:09.165Z,74.90
2022-12-25T17:45:11.909Z,74.63
2022-12-25T17:48:16.094Z,74.63
2022-12-25T17:51:21.436Z,74.53
2022-12-25T17:54:24.092Z,75.10
2022-12-25T17:57:26.422Z,75.17
2022-12-25T18:00:29.120Z,74.98
2022-12-25T18:03:32.059Z,75.27
2022-12-25T18:06:36.209Z,75.76
2022-12-25T18:09:38.919Z,75.63
2022-12-25T18:12:43.609Z,75.59
2022-12-25T18:15:46.437Z,75.81
2022-12-25T18:18:52.382Z,75.99
2022-12-25T18:21:55.549Z,75.69
2022-12-25T18:24:57.866Z,75.46
2022-12-25T18:28:02.619Z,76.03
2022-12-25T18:31:15.865Z,76.30
2022-12-25T18:34:18.536Z,75.95
2022-12-25T18:37:21.375Z,76.12
2022-12-25T18:40:24.547Z,76.14
2022-12-25T18:43:51.499Z,76.05
2022-12-25T18:46:49.506Z,75.86
2022-12-25T18:49:52.932Z,75.63
2022-12-25T18:52:55.617Z,75.83
2022-12-25T18:56:10.898Z,75.36
2022-12-25T18:59:13.513Z,75.42
2022-12-25T19:02:16.798Z,75.52
2022-12-25T19:05:19.463Z,75.87
2022-12-25T19:08:21.930Z,75.85
2022-12-25T19:11:24.700Z,75.42
2022-12-25T19:14:28.398Z,75.21
2022-12-25T19:17:32.152Z,75.37
2022-12-25T19:20:37.843Z,75.63
2022-12-25T19:23:40.604Z,75.53
2022-12-25T19:26:43.853Z,75.53
2022-12-25T19:29:46.814Z,75.51
2022-12-25T19:32:49.321Z,75.41
2022-12-25T19:35:52.113Z,74.88
2022-12-25T19:38:54.453Z,74.93
2022-12-25T19:41:57.056Z,75.21
2022-12-25T19:44:59.601Z,75.44
2022-12-25T19:48:02.212Z,74.74
2022-12-25T19:51:18.047Z,75.01
2022-12-25T19:54:21.397Z,75.01
2022-12-25T19:57:23.711Z,75.19
2022-12-25T20:00:27.345Z,74.92
2022-12-25T20:03:30.288Z,74.65
2022-12-25T20:06:33.876Z,74.81
2022-12-25T20:09:36.515Z,75.12
2022-12-25T20:12:38.975Z,75.20
2022-12-25T20:15:41.718Z,74.93
2022-12-25T20:18:44.358Z,75.27
2022-12-25T20:21:47.826Z,75.31
2022-12-25T20:24:50.209Z,74.84
2022-12-25T20:27:53.763Z,75.00
2022-12-25T20:30:56.485Z,74.67
2022-12-25T20:34:05.921Z,74.81
2022-12-25T20:37:08.374Z,74.77
2022-12-25T20:40:11.797Z,75.50
2022-12-25T20:43:14.117Z,76.11
2022-12-25T20:46:17.066Z,76.09
2022-12-25T20:49:19.426Z,76.34
2022-12-25T20:52:22.022Z,76.02
2022-12-25T20:55:24.410Z,76.31
2022-12-25T20:58:27.457Z,76.07
2022-12-25T21:01:30.906Z,76.31
2022-12-25T21:04:33.747Z,75.57
2022-12-25T21:07:36.216Z,75.60
2022-12-25T21:10:38.842Z,75.65
2022-12-25T21:13:42.899Z,75.61
2022-12-25T21:16:45.574Z,75.93
2022-12-25T21:19:49.261Z,76.12
2022-12-25T21:22:51.847Z,76.25
2022-12-25T21:25:54.898Z,76.30
2022-12-25T21:29:00.449Z,75.90
2022-12-25T21:32:21.739Z,75.86
2022-12-25T21:35:27.198Z,76.13
2022-12-25T21:38:29.861Z,75.98
2022-12-25T21:41:37.867Z,76.14
2022-12-25T21:44:40.287Z,75.69
2022-12-25T21:47:59.790Z,75.79
2022-12-25T21:51:34.412Z,75.55
2022-12-25T21:54:37.616Z,75.00
2022-12-25T21:57:40.217Z,75.26
2022-12-25T22:00:43.007Z,75.19
2022-12-25T22:03:46.079Z,75.28
2022-12-25T22:07:12.206Z,75.25
2022-12-25T22:10:15.122Z,75.08
2022-12-25T22:13:36.233Z,75.47
2022-12-25T22:17:00.282Z,75.34
2022-12-25T22:20:03.879Z,75.33
2022-12-25T22:23:07.161Z,75.30
2022-12-25T22:26:20.638Z,75.45
2022-12-25T22:29:25.233Z,75.35
2022-12-25T22:32:28.735Z,75.43
2022-12-25T22:35:31.359Z,75.18
2022-12-25T22:38:34.579Z,74.98
2022-12-25T22:41:37.772Z,74.92
2022-12-25T22:44:40.387Z,75.20
2022-12-25T22:47:43.949Z,75.29
2022-12-25T22:50:46.328Z,75.28
2022-12-25T22:53:50.009Z,75.18
2022-12-25T22:56:53.375Z,75.23
2022-12-25T22:59:56.127Z,75.19
2022-12-25T23:02:58.809Z,75.31
2022-12-25T23:06:01.745Z,75.36
2022-12-25T23:09:05.453Z,75.33
2022-12-25T23:12:27.887Z,75.42
2022-12-25T23:15:30.225Z,75.65
2022-12-25T23:18:51.586Z,75.61
2022-12-25T23:22:12.527Z,75.53
2022-12-25T23:25:34.466Z,75.45
2022-12-25T23:28:57.400Z,75.69
2022-12-25T23:32:00.238Z,75.71
2022-12-25T23:35:03.279Z,75.67
2022-12-25T23:38:05.918Z,75.60
2022-12-25T23:41:08.220Z,75.75
2022-12-25T23:44:12.910Z,75.73
2022-12-25T23:47:15.319Z,75.88
2022-12-25T23:50:17.925Z,76.20
2022-12-25T23:53:20.378Z,76.05
2022-12-25T23:56:23.431Z,76.10
2022-12-25T23:59:28.096Z,76.22
